Forbes, North Dakota
Current Conditions -  °F | °C
As of 9:53 PM on Friday 24 Oct 2014 (Local Time) from KABR Reporting Station
Clear Clear  
Wind Chill: 62°   Ceiling: Unl
Heat Index: 62°   Visibility: 10mi
Dew Point: 37°   Wind: 13mph
Humidity: 39%   Direction: 320°NW
Pressure: 29.99"   Gusts: NA
Location:  45.94°N, 98.78°W
Report Text: KABR 250253Z AUTO 32011KT 10SM CLR 17/03 A2999 RMK AO2 SLP158 T01670028 53020
Loading
Personal Weather Stations






























Interactive Weather Map
Tropical Storm Tracking
New forecast layout! Learn more

10-Day Weather Forecast

Advertisements
Track Severe Weather on mobile